Trempealeau, WI (54661)

22:38 CST le 18 décembre 2014 (GMT -0600)
Holmen | Change Station
CLOSE
Current Station
Stations météorologiques personnelles
Location: Holmen, WI
Altitude: 705 ft
Stations météo à proximité

Alt. 705 ft 43.96 °N, 91.26 °W | Updated 17 seconds ago

Couvert
Couvert
25.0 ° F
Paraît 25 ° F
N
0.6
Vent Variable Vent de SE
Gusts 0.6 mph

Aujourd'hui
Haut(e) -- | Bas -- ° F
--% Risque de précip.
Hier
Haut(e) -- | Bas -- ° F
Precip. -- pouce
7:35 AM 4:29 PM
Lune descendante, 10% visible
Pression 30.34 pouce
Visibilité 10.0 Miles terrestres
Nuages Couvert 1600 ft
Refroidissement éolien 25 ° F
Point de rosée 20 ° F
Humidité 81%
Précipitations 0.00 pouce
Profondeur de la couche neigeuse Non disponible.
UV 0 sur 12
Pollen .10 sur 12
Qualité de l'air Non disponible.
Flu Activity Non disponible.
METAR KLSE 190353Z AUTO 18004KT 10SM OVC016 M03/M07 A3029 RMK AO2 SLP273 T10331072

More Conditions Fewer Conditions

Pression 30.34 pouce
Visibilité 10.0 Miles terrestres
Nuages Couvert 1600 ft
Refroidissement éolien 25 ° F
Point de rosée 20 ° F
Humidité 81%
Précipitations 0.00 pouce
Profondeur de la couche neigeuse Non disponible.
UV 0 sur 12
Pollen .10 sur 12
Qualité de l'air Non disponible.
Flu Activity Non disponible.
METAR KLSE 190353Z AUTO 18004KT 10SM OVC016 M03/M07 A3029 RMK AO2 SLP273 T10331072

More Conditions Fewer Conditions

10-Day Weather Forecast

Almanac

Astronomie

Dec. 18, 2014 Lever Coucher
Temps réel
Crépuscule civil
Crépuscule nautique
Crépuscule astronomique
Lune
Durée de lumière visible
Longueur du jour
Tomorrow will be .
, % of the Moon is Illuminated

Extrêmes aujourd'hui

State Highs State Lows

Community

WunderPhotos

Upload Photos

1,778,963 Photos téléchargées !

WunderBlogs® & News

Nearby

Qualité de l'air

  Qualité de l'air Indice de la qualité de l'air Polluant
Not available.

Épaisseur de neige

Station Depth Altitude

Activité sismique

Ville Distance Mag. Time & Date
Minimum magnitude displayed is 2.5.

Températures des eaux côtières

Lieu Température

Stations météo à proximité